Meishomaru — JD3044 — position and weather

sailwx.info

Track history (hours):
 
Tides and Currents Weather Stations Pressure Air Temp Water Temp Dewpoint Dewpoint Depression Visibility Wind Speed Wind Dir Waves Ship Positions

Meishomaru

Last reported at 2014-Jul-25 21:29 UTC. Time now 2014-Jul-26 07:11 UTC.
Position N 36°29' E 141°01'.

Length 68 m; draft 2.6 m.

Type: Tanker. MMSI: 431001216.

Date/timePositionNaut miles runAvg speedWind from/ knotsBaromVisibWave heightAir tempDewpointWater temp
2014-Jul-25 21:29N 36°29' E 141°01'2711.8
2014-Jul-25 19:14N 36°02' E 140°59'812.0
2014-Jul-25 18:33N 35°54' E 140°58'1211.9
2014-Jul-25 17:33N 35°42' E 140°56'1211.6
2014-Jul-25 16:32N 35°32' E 140°49'1512.4
2014-Jul-25 15:18N 35°19' E 140°38'1012.2
2014-Jul-25 14:31N 35°12' E 140°31'1413.5
2014-Jul-25 13:31N 35°03' E 140°18'1313.2
2014-Jul-25 12:33N 34°56' E 140°05'1312.8
2014-Jul-25 11:31N 34°51' E 139°50'25210.5
2014-Jul-24 11:31N 34°03' E 134°50'5 0.2
2014-Jul-23 12:33N 33°59' E 134°55'21510.2
2014-Jul-22 15:33N 34°50' E 139°08'1211.9
2014-Jul-22 14:32N 34°58' E 139°20'1010.5
2014-Jul-22 13:33N 35°02' E 139°31'1110.9
2014-Jul-22 12:33N 35°08' E 139°42'1010.4
2014-Jul-22 11:33N 35°18' E 139°44'10 9.8
2014-Jul-22 10:33N 35°28' E 139°48'1010.4
2014-Jul-22 09:33N 35°29' E 140°01'0 0.3
2014-Jul-22 08:29N 35°29' E 140°01'0 0.0
2014-Jul-22 07:32N 35°29' E 140°01'0 0.0
2014-Jul-22 06:32N 35°29' E 140°01'0 0.0
2014-Jul-22 05:32N 35°29' E 140°01'0 0.0
2014-Jul-22 04:32N 35°29' E 140°01'5 5.2
2014-Jul-22 03:33N 35°29' E 139°55'0 0.1
2014-Jul-22 02:33N 35°29' E 139°55'0 0.0
2014-Jul-22 01:33N 35°29' E 139°55'0 0.0
2014-Jul-22 00:33N 35°29' E 139°55'0 0.0
2014-Jul-21 23:27N 35°29' E 139°55'0 0.1
2014-Jul-21 22:33N 35°29' E 139°55'0 0.0
2014-Jul-21 21:33N 35°29' E 139°55'0 0.0
2014-Jul-21 20:30N 35°29' E 139°55'0 0.0
2014-Jul-21 20:18N 35°29' E 139°55'0 0.0
2014-Jul-21 19:33N 35°29' E 139°55'0 0.0
2014-Jul-21 18:30N 35°29' E 139°55'0 0.0
2014-Jul-21 17:30N 35°29' E 139°55'0 0.1
2014-Jul-21 16:33N 35°29' E 139°55'0 0.0
2014-Jul-21 15:27N 35°29' E 139°55'0 0.0
2014-Jul-21 14:33N 35°29' E 139°55'0 0.0
2014-Jul-21 13:33N 35°29' E 139°55'0 0.0
2014-Jul-21 12:33N 35°29' E 139°55'0 0.0
2014-Jul-21 11:30N 35°29' E 139°55'0 0.0
2014-Jul-21 10:30N 35°29' E 139°55'0 0.0
2014-Jul-21 09:33N 35°29' E 139°55'0 0.0
2014-Jul-21 08:30N 35°29' E 139°55'0 0.0
2014-Jul-21 07:33N 35°29' E 139°55'0 0.0
2014-Jul-21 06:33N 35°29' E 139°55'0 0.0
2014-Jul-21 05:33N 35°29' E 139°55'0 0.0
2014-Jul-21 04:27N 35°29' E 139°55'0 0.0
2014-Jul-21 03:30N 35°29' E 139°55'0 0.0
2014-Jul-21 02:33N 35°29' E 139°55'0 0.0
2014-Jul-21 01:33N 35°29' E 139°55'0 0.0
2014-Jul-21 00:33N 35°29' E 139°55'0 0.0
2014-Jul-20 23:33N 35°29' E 139°55'0 0.0
2014-Jul-20 22:33N 35°29' E 139°55'0 0.0
2014-Jul-20 21:33N 35°29' E 139°55'0 0.0
2014-Jul-20 20:33N 35°29' E 139°55'0 0.0
2014-Jul-20 19:33N 35°29' E 139°55'0 0.0
2014-Jul-20 18:33N 35°29' E 139°55'0 0.0
2014-Jul-20 17:33N 35°29' E 139°55'0 0.0
2014-Jul-20 16:33N 35°29' E 139°55'1 0.5
2014-Jul-20 15:33N 35°29' E 139°54'1111.4
2014-Jul-20 14:33N 35°20' E 139°45'1111.4
2014-Jul-20 13:33N 35°09' E 139°47'1212.0
2014-Jul-20 12:33N 34°57' E 139°45'11 9.2
2014-Jul-20 11:20N 34°53' E 139°57'1012.4
2014-Jul-20 10:33N 34°58' E 140°07'2612.1
2014-Jul-20 08:26N 35°14' E 140°31'1312.6
2014-Jul-20 07:25N 35°25' E 140°41'1112.7
2014-Jul-20 06:33N 35°34' E 140°48'2411.1
2014-Jul-20 04:25N 35°57' E 140°44'4 0.8
2014-Jul-19 23:33N 35°54' E 140°41'5 5.0
2014-Jul-19 22:33N 35°58' E 140°44'0 0.0
2014-Jul-19 21:27N 35°58' E 140°44'0 0.0
2014-Jul-19 20:33N 35°58' E 140°44'8 8.0
2014-Jul-19 19:33N 35°51' E 140°49'1210.4
2014-Jul-19 18:26N 35°41' E 140°55'1211.2
2014-Jul-19 17:24N 35°31' E 140°47'1111.6
2014-Jul-19 16:29N 35°23' E 140°39'1112.0
2014-Jul-19 15:33N 35°14' E 140°31'1412.6
2014-Jul-19 14:26N 35°04' E 140°18'1011.9
2014-Jul-19 13:34N 34°58' E 140°08'1512.0
2014-Jul-19 12:21N 34°51' E 139°52'1012.6
2014-Jul-19 11:34N 34°58' E 139°43'1212.5
2014-Jul-19 10:34N 35°10' E 139°46'1111.3
2014-Jul-19 09:34N 35°21' E 139°42'1111.3
2014-Jul-19 08:34N 35°30' E 139°52'10 9.5
2014-Jul-19 07:32N 35°32' E 140°03'0 0.0
2014-Jul-19 06:32N 35°32' E 140°03'0 0.0
2014-Jul-19 05:32N 35°32' E 140°03'0 0.0
2014-Jul-19 04:32N 35°32' E 140°03'0 0.0
2014-Jul-19 03:32N 35°32' E 140°03'6 5.8
2014-Jul-19 02:33N 35°30' E 139°57'1 1.3
2014-Jul-19 01:31N 35°29' E 139°56'0 0.0
2014-Jul-19 00:31N 35°29' E 139°56'0 0.0
2014-Jul-18 23:31N 35°29' E 139°56'0 0.0
2014-Jul-18 22:31N 35°29' E 139°56'0 0.0
2014-Jul-18 21:31N 35°29' E 139°56'9 9.5
2014-Jul-18 20:33N 35°24' E 139°46'1110.6
2014-Jul-18 19:33N 35°13' E 139°47'1110.9
2014-Jul-18 18:33N 35°03' E 139°44'10 9.9
2014-Jul-18 17:33N 34°53' E 139°47'1411.1
2014-Jul-18 16:20N 34°57' E 140°03'2611.7
2014-Jul-18 14:06N 35°12' E 140°29'711.0
2014-Jul-18 13:31N 35°17' E 140°34'1212.1
2014-Jul-18 12:33N 35°27' E 140°42'3110.2
2014-Jul-18 09:32N 35°57' E 140°42'4 0.8
2014-Jul-18 04:24N 35°54' E 140°41'4 0.5
2014-Jul-17 20:16N 35°57' E 140°42'0 0.0
2014-Jul-17 14:10N 35°57' E 140°42'4 1.2
2014-Jul-17 10:29N 35°55' E 140°47'2110.1
2014-Jul-17 08:24N 35°34' E 140°50'1212.4
2014-Jul-17 07:27N 35°25' E 140°41'1112.1
2014-Jul-17 06:31N 35°16' E 140°32'1612.7
2014-Jul-17 05:14N 35°04' E 140°18'913.0
2014-Jul-17 04:32N 34°59' E 140°09'1212.3
2014-Jul-17 03:32N 34°52' E 139°57'1211.4
2014-Jul-17 02:30N 34°49' E 139°43'  
Track history (hours):
 
Tides and Currents Weather Stations Pressure Air Temp Water Temp Dewpoint Dewpoint Depression Visibility Wind Speed Wind Dir Waves Ship Positions

Meishomaru

Last reported at 2014-Jul-25 21:29 UTC. Time now 2014-Jul-26 07:11 UTC.
Position N 36°29' E 141°01'.

Length 68 m; draft 2.6 m.

Type: Tanker. MMSI: 431001216.

Date/timePositionNaut miles runAvg speedWind from/ knotsBaromVisibWave heightAir tempDewpointWater temp
2014-Jul-25 21:29N 36°29' E 141°01'2711.8
2014-Jul-25 19:14N 36°02' E 140°59'812.0
2014-Jul-25 18:33N 35°54' E 140°58'1211.9
2014-Jul-25 17:33N 35°42' E 140°56'1211.6
2014-Jul-25 16:32N 35°32' E 140°49'1512.4
2014-Jul-25 15:18N 35°19' E 140°38'1012.2
2014-Jul-25 14:31N 35°12' E 140°31'1413.5
2014-Jul-25 13:31N 35°03' E 140°18'1313.2
2014-Jul-25 12:33N 34°56' E 140°05'1312.8
2014-Jul-25 11:31N 34°51' E 139°50'25210.5
2014-Jul-24 11:31N 34°03' E 134°50'5 0.2
2014-Jul-23 12:33N 33°59' E 134°55'21510.2
2014-Jul-22 15:33N 34°50' E 139°08'1211.9
2014-Jul-22 14:32N 34°58' E 139°20'1010.5
2014-Jul-22 13:33N 35°02' E 139°31'1110.9
2014-Jul-22 12:33N 35°08' E 139°42'1010.4
2014-Jul-22 11:33N 35°18' E 139°44'10 9.8
2014-Jul-22 10:33N 35°28' E 139°48'1010.4
2014-Jul-22 09:33N 35°29' E 140°01'0 0.3
2014-Jul-22 08:29N 35°29' E 140°01'0 0.0
2014-Jul-22 07:32N 35°29' E 140°01'0 0.0
2014-Jul-22 06:32N 35°29' E 140°01'0 0.0
2014-Jul-22 05:32N 35°29' E 140°01'0 0.0
2014-Jul-22 04:32N 35°29' E 140°01'5 5.2
2014-Jul-22 03:33N 35°29' E 139°55'0 0.1
2014-Jul-22 02:33N 35°29' E 139°55'0 0.0
2014-Jul-22 01:33N 35°29' E 139°55'0 0.0
2014-Jul-22 00:33N 35°29' E 139°55'0 0.0
2014-Jul-21 23:27N 35°29' E 139°55'0 0.1
2014-Jul-21 22:33N 35°29' E 139°55'0 0.0
2014-Jul-21 21:33N 35°29' E 139°55'0 0.0
2014-Jul-21 20:30N 35°29' E 139°55'0 0.0
2014-Jul-21 20:18N 35°29' E 139°55'0 0.0
2014-Jul-21 19:33N 35°29' E 139°55'0 0.0
2014-Jul-21 18:30N 35°29' E 139°55'0 0.0
2014-Jul-21 17:30N 35°29' E 139°55'0 0.1
2014-Jul-21 16:33N 35°29' E 139°55'0 0.0
2014-Jul-21 15:27N 35°29' E 139°55'0 0.0
2014-Jul-21 14:33N 35°29' E 139°55'0 0.0
2014-Jul-21 13:33N 35°29' E 139°55'0 0.0
2014-Jul-21 12:33N 35°29' E 139°55'0 0.0
2014-Jul-21 11:30N 35°29' E 139°55'0 0.0
2014-Jul-21 10:30N 35°29' E 139°55'0 0.0
2014-Jul-21 09:33N 35°29' E 139°55'0 0.0
2014-Jul-21 08:30N 35°29' E 139°55'0 0.0
2014-Jul-21 07:33N 35°29' E 139°55'0 0.0
2014-Jul-21 06:33N 35°29' E 139°55'0 0.0
2014-Jul-21 05:33N 35°29' E 139°55'0 0.0
2014-Jul-21 04:27N 35°29' E 139°55'0 0.0
2014-Jul-21 03:30N 35°29' E 139°55'0 0.0
2014-Jul-21 02:33N 35°29' E 139°55'0 0.0
2014-Jul-21 01:33N 35°29' E 139°55'0 0.0
2014-Jul-21 00:33N 35°29' E 139°55'0 0.0
2014-Jul-20 23:33N 35°29' E 139°55'0 0.0
2014-Jul-20 22:33N 35°29' E 139°55'0 0.0
2014-Jul-20 21:33N 35°29' E 139°55'0 0.0
2014-Jul-20 20:33N 35°29' E 139°55'0 0.0
2014-Jul-20 19:33N 35°29' E 139°55'0 0.0
2014-Jul-20 18:33N 35°29' E 139°55'0 0.0
2014-Jul-20 17:33N 35°29' E 139°55'0 0.0
2014-Jul-20 16:33N 35°29' E 139°55'1 0.5
2014-Jul-20 15:33N 35°29' E 139°54'1111.4
2014-Jul-20 14:33N 35°20' E 139°45'1111.4
2014-Jul-20 13:33N 35°09' E 139°47'1212.0
2014-Jul-20 12:33N 34°57' E 139°45'11 9.2
2014-Jul-20 11:20N 34°53' E 139°57'1012.4
2014-Jul-20 10:33N 34°58' E 140°07'2612.1
2014-Jul-20 08:26N 35°14' E 140°31'1312.6
2014-Jul-20 07:25N 35°25' E 140°41'1112.7
2014-Jul-20 06:33N 35°34' E 140°48'2411.1
2014-Jul-20 04:25N 35°57' E 140°44'4 0.8
2014-Jul-19 23:33N 35°54' E 140°41'5 5.0
2014-Jul-19 22:33N 35°58' E 140°44'0 0.0
2014-Jul-19 21:27N 35°58' E 140°44'0 0.0
2014-Jul-19 20:33N 35°58' E 140°44'8 8.0
2014-Jul-19 19:33N 35°51' E 140°49'1210.4
2014-Jul-19 18:26N 35°41' E 140°55'1211.2
2014-Jul-19 17:24N 35°31' E 140°47'1111.6
2014-Jul-19 16:29N 35°23' E 140°39'1112.0
2014-Jul-19 15:33N 35°14' E 140°31'1412.6
2014-Jul-19 14:26N 35°04' E 140°18'1011.9
2014-Jul-19 13:34N 34°58' E 140°08'1512.0
2014-Jul-19 12:21N 34°51' E 139°52'1012.6
2014-Jul-19 11:34N 34°58' E 139°43'1212.5
2014-Jul-19 10:34N 35°10' E 139°46'1111.3
2014-Jul-19 09:34N 35°21' E 139°42'1111.3
2014-Jul-19 08:34N 35°30' E 139°52'10 9.5
2014-Jul-19 07:32N 35°32' E 140°03'0 0.0
2014-Jul-19 06:32N 35°32' E 140°03'0 0.0
2014-Jul-19 05:32N 35°32' E 140°03'0 0.0
2014-Jul-19 04:32N 35°32' E 140°03'0 0.0
2014-Jul-19 03:32N 35°32' E 140°03'6 5.8
2014-Jul-19 02:33N 35°30' E 139°57'1 1.3
2014-Jul-19 01:31N 35°29' E 139°56'0 0.0
2014-Jul-19 00:31N 35°29' E 139°56'0 0.0
2014-Jul-18 23:31N 35°29' E 139°56'0 0.0
2014-Jul-18 22:31N 35°29' E 139°56'0 0.0
2014-Jul-18 21:31N 35°29' E 139°56'9 9.5
2014-Jul-18 20:33N 35°24' E 139°46'1110.6
2014-Jul-18 19:33N 35°13' E 139°47'1110.9
2014-Jul-18 18:33N 35°03' E 139°44'10 9.9
2014-Jul-18 17:33N 34°53' E 139°47'1411.1
2014-Jul-18 16:20N 34°57' E 140°03'2611.7
2014-Jul-18 14:06N 35°12' E 140°29'711.0
2014-Jul-18 13:31N 35°17' E 140°34'1212.1
2014-Jul-18 12:33N 35°27' E 140°42'3110.2
2014-Jul-18 09:32N 35°57' E 140°42'4 0.8
2014-Jul-18 04:24N 35°54' E 140°41'4 0.5
2014-Jul-17 20:16N 35°57' E 140°42'0 0.0
2014-Jul-17 14:10N 35°57' E 140°42'4 1.2
2014-Jul-17 10:29N 35°55' E 140°47'2110.1
2014-Jul-17 08:24N 35°34' E 140°50'1212.4
2014-Jul-17 07:27N 35°25' E 140°41'1112.1
2014-Jul-17 06:31N 35°16' E 140°32'1612.7
2014-Jul-17 05:14N 35°04' E 140°18'913.0
2014-Jul-17 04:32N 34°59' E 140°09'1212.3
2014-Jul-17 03:32N 34°52' E 139°57'1211.4
2014-Jul-17 02:30N 34°49' E 139°43'  

Dump ship's entire track history